Time;durP1;ratioP1;P1;durP2;ratioP2;P2;SDS_P1;SDS_P2;PMS_P1;PMS_P2;Temp;Humidity;BMP_temperature;BMP_pressure;BME280_temperature;BME280_humidity;BME280_pressure;Samples;Min_cycle;Max_cycle;Signal;HPM_P1;HPM_P2
2022/11/09 00:00:40;;;;;;;4.95;4.65;;;;;;;12.84;100.00;100322.53;6182367;23;20016;-72
2022/11/09 00:03:07;;;;;;;4.47;4.28;;;;;;;12.33;100.00;100239.91;6147432;23;20188;-73
2022/11/09 00:05:33;;;;;;;4.97;4.78;;;;;;;12.69;100.00;100298.91;6176031;23;20149;-72
2022/11/09 00:08:00;;;;;;;5.18;4.90;;;;;;;12.66;100.00;100299.13;6148712;23;20346;-71
2022/11/09 00:10:27;;;;;;;5.00;4.70;;;;;;;12.01;100.00;100199.09;6148507;23;20328;-73
2022/11/09 00:12:53;;;;;;;5.30;4.90;;;;;;;12.65;100.00;100300.06;6135283;23;20496;-72
2022/11/09 00:15:20;;;;;;;4.93;4.63;;;;;;;12.59;100.00;100305.75;6173165;23;20020;-73
2022/11/09 00:17:46;;;;;;;4.95;4.65;;;;;;;12.31;100.00;100260.22;6088051;23;20033;-73
2022/11/09 00:20:12;;;;;;;5.00;4.80;;;;;;;12.28;100.00;100235.88;6173064;23;20391;-72
2022/11/09 00:22:39;;;;;;;4.95;4.65;;;;;;;12.09;100.00;100209.97;6115421;23;20416;-73
2022/11/09 00:25:06;;;;;;;5.25;4.95;;;;;;;12.51;100.00;100279.94;6189920;23;20202;-73
2022/11/09 00:27:32;;;;;;;4.85;4.40;;;;;;;12.57;100.00;100290.06;6103423;23;20021;-71
2022/11/09 00:29:59;;;;;;;4.60;4.40;;;;;;;12.49;100.00;100283.63;6147758;23;20020;-72
2022/11/09 00:32:25;;;;;;;4.75;4.47;;;;;;;12.57;100.00;100297.94;6145090;23;20017;-72
2022/11/09 00:34:53;;;;;;;4.60;4.40;;;;;;;12.56;100.00;100305.94;6175958;23;20028;-73
2022/11/09 00:37:19;;;;;;;4.93;4.72;;;;;;;12.17;100.00;100252.41;6137001;23;20258;-72
2022/11/09 00:39:46;;;;;;;5.13;4.82;;;;;;;12.22;100.00;100250.28;6166916;23;20009;-72
2022/11/09 00:42:12;;;;;;;5.30;4.90;;;;;;;12.39;100.00;100278.13;6112462;23;20273;-72
2022/11/09 00:44:39;;;;;;;4.97;4.75;;;;;;;12.47;100.00;100293.38;6141945;23;20478;-73
2022/11/09 00:47:05;;;;;;;7.57;4.90;;;;;;;12.16;100.00;100256.78;6137595;23;20017;-72
2022/11/09 00:49:31;;;;;;;7.28;4.80;;;;;;;12.21;100.00;100268.81;6174530;23;20397;-72
2022/11/09 00:51:58;;;;;;;4.70;4.50;;;;;;;12.23;100.00;100285.31;6122485;23;20080;-72
2022/11/09 00:54:24;;;;;;;5.00;4.70;;;;;;;12.30;100.00;100302.41;6168951;23;20019;-72
2022/11/09 00:56:51;;;;;;;4.68;4.47;;;;;;;12.31;100.00;100294.41;6113173;23;20041;-72
2022/11/09 00:59:17;;;;;;;5.00;4.70;;;;;;;12.12;100.00;100270.25;6178053;23;20360;-72
2022/11/09 01:01:43;;;;;;;4.97;4.70;;;;;;;12.01;100.00;100246.44;6124837;23;20029;-72
2022/11/09 01:04:10;;;;;;;5.20;4.90;;;;;;;11.96;100.00;100250.22;6171591;23;20032;-72
2022/11/09 01:06:36;;;;;;;5.10;4.80;;;;;;;10.99;100.00;100095.28;6114390;23;20238;-73
2022/11/09 01:09:03;;;;;;;4.40;4.20;;;;;;;12.04;100.00;100267.28;6147125;23;20414;-72
2022/11/09 01:11:29;;;;;;;5.00;4.65;;;;;;;12.00;100.00;100266.63;6124651;23;20040;-72
2022/11/09 01:13:59;;;;;;;4.70;4.50;;;;;;;12.18;100.00;100298.78;6166108;23;20345;-72
2022/11/09 01:16:26;;;;;;;4.75;4.50;;;;;;;12.20;100.00;100307.44;6137406;23;20468;-72
2022/11/09 01:18:54;;;;;;;4.75;4.55;;;;;;;12.21;100.00;100314.38;6176649;23;20032;-72
2022/11/09 01:21:21;;;;;;;5.25;4.95;;;;;;;11.71;100.00;100247.47;6115600;23;20408;-73
2022/11/09 01:23:47;;;;;;;4.70;4.50;;;;;;;12.20;100.00;100325.00;6171369;23;20555;-73
2022/11/09 01:26:15;;;;;;;4.80;4.60;;;;;;;12.24;100.00;100329.97;6118778;23;20080;-73
2022/11/09 01:28:42;;;;;;;5.03;4.72;;;;;;;12.27;100.00;100329.78;6187736;23;20036;-73
2022/11/09 01:31:14;;;;;;;4.80;4.60;;;;;;;12.38;100.00;100339.59;6133157;23;20014;-71
2022/11/09 01:33:41;;;;;;;4.93;4.68;;;;;;;11.26;100.00;100181.97;6182370;23;20012;-73
2022/11/09 01:36:17;;;;;;;5.40;5.10;;;;;;;12.38;100.00;100348.31;6108630;23;20025;-73
2022/11/09 01:38:44;;;;;;;5.05;4.78;;;;;;;12.06;100.00;100302.22;6175857;23;20466;-72
2022/11/09 01:41:23;;;;;;;6.38;5.88;;;;;;;11.37;100.00;100195.28;6098372;23;20515;-72
2022/11/09 01:44:11;;;;;;;4.90;4.70;;;;;;;12.36;100.00;100362.53;6172734;23;20107;-73
2022/11/09 01:46:55;;;;;;;4.60;4.40;;;;;;;12.34;100.00;100362.63;6139679;23;20017;-72
2022/11/09 01:49:33;;;;;;;4.60;4.32;;;;;;;12.15;100.00;100343.72;6174459;23;20019;-72
2022/11/09 01:52:04;;;;;;;4.72;4.45;;;;;;;12.07;100.00;100330.22;6118277;23;20029;-73
2022/11/09 01:54:39;;;;;;;5.00;4.70;;;;;;;12.01;100.00;100320.94;6176127;23;20242;-73
2022/11/09 01:57:10;;;;;;;4.53;4.32;;;;;;;12.02;100.00;100317.34;6140733;23;20032;-72
2022/11/09 01:59:41;;;;;;;4.63;4.35;;;;;;;10.86;100.00;100131.13;6152353;23;20033;-72
2022/11/09 02:02:08;;;;;;;4.70;4.50;;;;;;;11.62;100.00;100266.44;6123735;23;20460;-73
2022/11/09 02:04:46;;;;;;;5.00;4.60;;;;;;;12.26;100.00;100362.28;6176581;23;20107;-72
2022/11/09 02:07:13;;;;;;;4.57;4.38;;;;;;;11.98;100.00;100327.22;6115201;23;20539;-72
2022/11/09 02:09:47;;;;;;;4.60;4.40;;;;;;;12.27;100.00;100345.56;6174528;23;20034;-72
2022/11/09 02:12:17;;;;;;;4.50;4.30;;;;;;;12.23;100.00;100341.44;6114947;23;20325;-73
2022/11/09 02:14:44;;;;;;;4.68;4.28;;;;;;;11.85;100.00;100302.63;6145370;23;20093;-72
2022/11/09 02:17:11;;;;;;;4.68;4.47;;;;;;;11.78;100.00;100296.06;6143630;23;20400;-72
2022/11/09 02:19:37;;;;;;;4.70;4.50;;;;;;;11.60;100.00;100256.03;6144941;23;20030;-71
2022/11/09 02:22:04;;;;;;;4.55;4.35;;;;;;;11.87;100.00;100294.66;6140643;23;20062;-72
2022/11/09 02:24:32;;;;;;;5.10;4.80;;;;;;;11.66;100.00;100267.94;6174950;23;20024;-73
2022/11/09 02:26:59;;;;;;;5.50;5.20;;;;;;;12.12;100.00;100364.97;6138022;23;20357;-72
2022/11/09 02:29:32;;;;;;;4.55;4.35;;;;;;;12.05;100.00;100347.91;6143435;23;20165;-72
2022/11/09 02:32:02;;;;;;;5.72;5.22;;;;;;;11.96;100.00;100344.88;6174881;23;20077;-72
2022/11/09 02:34:29;;;;;;;4.63;4.32;;;;;;;11.85;100.00;100331.56;6118024;23;20292;-73
2022/11/09 02:36:56;;;;;;;4.90;4.60;;;;;;;11.79;100.00;100316.16;6173405;23;20050;-73
2022/11/09 02:39:25;;;;;;;4.68;4.47;;;;;;;11.97;100.00;100341.31;6128135;23;20084;-73
2022/11/09 02:42:01;;;;;;;4.82;4.47;;;;;;;11.75;100.00;100302.38;6175774;23;20029;-72
2022/11/09 02:44:33;;;;;;;4.47;4.28;;;;;;;11.80;100.00;100325.72;6108797;23;20028;-73
2022/11/09 02:46:59;;;;;;;4.82;4.53;;;;;;;11.85;100.00;100344.69;6171479;23;20017;-73
2022/11/09 02:49:26;;;;;;;4.60;4.40;;;;;;;11.33;100.00;100256.00;6140107;23;20076;-71
2022/11/09 02:51:52;;;;;;;4.80;4.50;;;;;;;11.88;100.00;100343.66;6166172;23;20009;-72
2022/11/09 02:54:19;;;;;;;4.97;4.50;;;;;;;11.37;100.00;100262.75;6123495;23;20083;-72
2022/11/09 02:56:45;;;;;;;4.82;4.45;;;;;;;11.64;100.00;100311.88;6145884;23;20028;-72
2022/11/09 02:59:11;;;;;;;5.40;5.00;;;;;;;11.94;100.00;100346.75;6099424;23;20079;-73
2022/11/09 03:01:38;;;;;;;4.20;4.00;;;;;;;11.30;100.00;100227.28;6172878;23;20107;-73
2022/11/09 03:04:04;;;;;;;4.53;4.32;;;;;;;12.06;100.00;100354.81;6141964;23;20050;-73
2022/11/09 03:06:33;;;;;;;5.22;4.95;;;;;;;11.64;100.00;100298.72;6174265;23;20111;-72
2022/11/09 03:09:05;;;;;;;5.00;4.70;;;;;;;12.12;100.00;100354.44;6120604;23;20100;-71
2022/11/09 03:11:32;;;;;;;4.40;4.20;;;;;;;12.13;100.00;100354.34;6175913;23;20369;-72
2022/11/09 03:13:58;;;;;;;4.70;4.50;;;;;;;12.04;100.00;100340.94;6120571;23;20194;-72
2022/11/09 03:16:25;;;;;;;4.65;4.45;;;;;;;12.21;100.00;100355.63;6177870;23;20017;-71
2022/11/09 03:18:51;;;;;;;4.90;4.68;;;;;;;12.25;100.00;100375.53;6117385;23;20029;-72
2022/11/09 03:21:18;;;;;;;4.53;4.32;;;;;;;12.22;100.00;100366.03;6178049;23;20077;-72
2022/11/09 03:23:44;;;;;;;4.80;4.55;;;;;;;12.31;100.00;100372.53;6144805;23;20094;-72
2022/11/09 03:26:11;;;;;;;4.40;4.20;;;;;;;12.31;100.00;100362.84;6154038;23;20017;-72
2022/11/09 03:28:37;;;;;;;5.18;4.65;;;;;;;12.32;100.00;100359.25;6150274;23;20036;-73
2022/11/09 03:31:04;;;;;;;4.70;4.50;;;;;;;12.02;100.00;100322.63;6090093;23;20466;-72
2022/11/09 03:33:30;;;;;;;4.63;4.43;;;;;;;12.29;100.00;100366.53;6176504;23;20024;-72
2022/11/09 03:35:57;;;;;;;4.80;4.60;;;;;;;12.05;100.00;100329.47;6140667;23;20013;-72
2022/11/09 03:38:23;;;;;;;4.90;4.70;;;;;;;12.06;100.00;100336.41;6175494;23;20074;-72
2022/11/09 03:40:50;;;;;;;4.55;4.35;;;;;;;12.04;100.00;100335.66;6137819;23;20041;-73
2022/11/09 03:43:16;;;;;;;6.50;6.13;;;;;;;11.99;100.00;100322.81;6149814;23;20089;-73
2022/11/09 03:45:43;;;;;;;4.60;4.40;;;;;;;12.08;100.00;100356.41;6116863;23;20025;-72
2022/11/09 03:48:09;;;;;;;5.35;4.80;;;;;;;12.36;100.00;100394.94;6176981;23;20418;-72
2022/11/09 03:50:39;;;;;;;5.00;4.70;;;;;;;12.34;100.00;100388.94;6136668;23;20149;-72
2022/11/09 03:53:08;;;;;;;4.68;4.47;;;;;;;12.31;100.00;100385.69;6148423;23;20613;-73
2022/11/09 03:55:35;;;;;;;4.57;4.38;;;;;;;11.91;100.00;100325.94;6154908;23;20360;-73
2022/11/09 03:58:03;;;;;;;4.53;4.32;;;;;;;11.96;100.00;100354.56;6151745;23;20644;-72
2022/11/09 04:00:30;;;;;;;5.60;4.53;;;;;;;12.06;100.00;100365.34;6149993;23;20045;-73
2022/11/09 04:02:57;;;;;;;4.60;4.40;;;;;;;12.12;100.00;100367.59;6176696;23;20156;-73
2022/11/09 04:05:24;;;;;;;4.50;4.30;;;;;;;11.73;100.00;100306.06;6090139;23;20020;-72
2022/11/09 04:07:52;;;;;;;4.50;4.30;;;;;;;12.27;100.00;100390.28;6144777;23;20345;-72
2022/11/09 04:10:20;;;;;;;4.80;4.60;;;;;;;12.18;100.00;100375.09;6134484;23;20073;-73
2022/11/09 04:12:46;;;;;;;6.32;4.50;;;;;;;11.84;100.00;100314.09;6150851;23;20470;-73
2022/11/09 04:15:13;;;;;;;13.15;4.68;;;;;;;12.29;100.00;100387.56;6141862;23;20021;-72
2022/11/09 04:17:40;;;;;;;4.53;4.32;;;;;;;12.26;100.00;100380.69;6174024;23;20036;-73
2022/11/09 04:20:07;;;;;;;4.93;4.70;;;;;;;12.35;100.00;100398.53;6119356;23;20026;-72
2022/11/09 04:22:34;;;;;;;5.70;4.70;;;;;;;12.44;100.00;100414.66;6173432;23;20095;-73
2022/11/09 04:25:00;;;;;;;4.75;4.45;;;;;;;12.47;100.00;100402.16;6139087;23;20025;-72
2022/11/09 04:27:28;;;;;;;4.90;4.53;;;;;;;12.51;100.00;100398.38;6175778;23;20181;-72
2022/11/09 04:29:55;;;;;;;8.45;4.47;;;;;;;12.47;100.00;100403.94;6142506;23;20025;-74
2022/11/09 04:32:21;;;;;;;4.50;4.28;;;;;;;12.20;100.00;100375.81;6174667;23;20016;-72
2022/11/09 04:34:47;;;;;;;6.32;4.63;;;;;;;12.27;100.00;100377.13;6152824;23;20032;-72
2022/11/09 04:37:14;;;;;;;5.30;4.90;;;;;;;12.34;100.00;100385.47;6150233;23;20239;-72
2022/11/09 04:39:40;;;;;;;4.60;4.40;;;;;;;12.31;100.00;100386.53;6115512;23;20021;-71
2022/11/09 04:42:07;;;;;;;5.65;5.15;;;;;;;12.22;100.00;100378.38;6173668;23;20514;-72
2022/11/09 04:44:33;;;;;;;5.18;4.88;;;;;;;12.46;100.00;100411.00;6148696;23;20016;-72
2022/11/09 04:46:59;;;;;;;4.55;4.35;;;;;;;12.37;100.00;100401.06;6149330;23;20024;-73
2022/11/09 04:49:26;;;;;;;4.70;4.50;;;;;;;12.38;100.00;100413.28;6121439;23;20396;-72
2022/11/09 04:51:52;;;;;;;4.82;4.50;;;;;;;12.44;100.00;100422.56;6171320;23;20012;-72
2022/11/09 04:54:18;;;;;;;5.32;4.68;;;;;;;12.19;100.00;100376.78;6115260;23;20091;-72
2022/11/09 04:56:45;;;;;;;4.30;4.10;;;;;;;12.46;100.00;100408.34;6174729;23;20012;-72
2022/11/09 04:59:11;;;;;;;5.07;4.78;;;;;;;12.59;100.00;100426.84;6130582;23;20377;-72
2022/11/09 05:01:37;;;;;;;4.70;4.40;;;;;;;12.32;100.00;100375.03;6146477;23;20025;-72
2022/11/09 05:04:04;;;;;;;4.60;4.40;;;;;;;12.27;100.00;100366.63;6141777;23;20040;-72
2022/11/09 05:06:30;;;;;;;4.82;4.57;;;;;;;12.08;100.00;100337.16;6175861;23;20373;-71
2022/11/09 05:08:59;;;;;;;5.28;4.80;;;;;;;12.51;100.00;100408.91;6136893;23;20088;-71
2022/11/09 05:11:26;;;;;;;4.80;4.50;;;;;;;12.47;100.00;100403.94;6148082;23;20098;-71
2022/11/09 05:13:52;;;;;;;5.15;4.85;;;;;;;12.14;100.00;100357.81;6115814;23;20071;-71
2022/11/09 05:16:19;;;;;;;5.05;4.70;;;;;;;12.21;100.00;100353.84;6146100;23;20021;-73
2022/11/09 05:18:46;;;;;;;4.93;4.50;;;;;;;12.00;100.00;100328.91;6175002;23;20058;-71
2022/11/09 05:21:12;;;;;;;4.93;4.50;;;;;;;12.03;100.00;100339.22;6114197;23;20070;-71
2022/11/09 05:26:37;;;;;;;4.50;4.20;;;;;;;12.65;100.00;100426.44;6112965;23;20467;-72
2022/11/09 05:29:06;;;;;;;5.30;4.95;;;;;;;12.63;100.00;100422.19;6173355;23;20031;-72
2022/11/09 05:31:33;;;;;;;4.45;4.25;;;;;;;12.66;100.00;100416.75;6118451;23;20025;-73
2022/11/09 05:34:00;;;;;;;5.25;4.80;;;;;;;12.32;100.00;100369.78;6145047;23;20043;-72
2022/11/09 05:36:27;;;;;;;4.50;4.30;;;;;;;12.61;100.00;100408.28;6143186;23;20388;-72
2022/11/09 05:38:54;;;;;;;6.07;4.50;;;;;;;12.43;100.00;100389.28;6170985;23;20058;-72
2022/11/09 05:41:21;;;;;;;4.90;4.50;;;;;;;12.54;100.00;100406.06;6143116;23;20039;-72
2022/11/09 05:43:48;;;;;;;4.75;4.55;;;;;;;12.49;100.00;100399.44;6145151;23;20032;-73
2022/11/09 05:46:17;;;;;;;4.80;4.40;;;;;;;12.35;100.00;100388.00;6173127;23;20454;-73
2022/11/09 05:48:43;;;;;;;4.82;4.60;;;;;;;12.24;100.00;100372.06;6147248;23;20013;-71
2022/11/09 05:51:12;;;;;;;4.90;4.60;;;;;;;12.38;100.00;100381.69;6167928;23;20009;-72
2022/11/09 05:53:39;;;;;;;5.63;4.40;;;;;;;12.50;100.00;100398.47;6150694;23;20021;-74
2022/11/09 05:56:11;;;;;;;4.85;4.55;;;;;;;12.34;100.00;100388.94;6168742;23;20061;-72
2022/11/09 05:58:40;;;;;;;4.88;4.50;;;;;;;12.42;100.00;100406.03;6112517;23;20374;-72
2022/11/09 06:01:10;;;;;;;7.35;4.80;;;;;;;12.17;100.00;100382.13;6170023;23;20025;-72
2022/11/09 06:03:36;;;;;;;4.70;4.50;;;;;;;12.23;100.00;100378.28;6138946;23;20510;-72
2022/11/09 06:06:06;;;;;;;4.60;4.40;;;;;;;12.49;100.00;100431.84;6174666;23;20147;-73
2022/11/09 06:08:34;;;;;;;5.20;4.88;;;;;;;12.21;100.00;100374.91;6138138;23;20024;-72
2022/11/09 06:11:07;;;;;;;5.00;4.60;;;;;;;12.40;100.00;100402.66;6175386;23;20415;-72
2022/11/09 06:13:33;;;;;;;4.25;4.05;;;;;;;12.27;100.00;100373.66;6113022;23;20419;-72
2022/11/09 06:16:02;;;;;;;4.50;4.30;;;;;;;12.38;100.00;100393.06;6145313;23;20084;-72
2022/11/09 06:18:30;;;;;;;5.00;4.57;;;;;;;12.05;100.00;100340.84;6173426;23;20091;-72
2022/11/09 06:21:00;;;;;;;4.40;4.20;;;;;;;12.18;100.00;100361.94;6120011;23;20010;-72
2022/11/09 06:23:28;;;;;;;4.75;4.30;;;;;;;12.15;100.00;100367.41;6169092;23;20071;-72
2022/11/09 06:25:59;;;;;;;5.18;4.57;;;;;;;12.10;100.00;100343.16;6118925;23;20447;-72
2022/11/09 06:28:25;;;;;;;4.47;4.28;;;;;;;12.10;100.00;100346.63;6174480;23;20024;-72
2022/11/09 06:30:55;;;;;;;4.35;4.15;;;;;;;12.11;100.00;100368.53;6115776;23;20250;-72
2022/11/09 06:33:22;;;;;;;4.40;4.20;;;;;;;12.10;100.00;100364.22;6175100;23;20005;-71
2022/11/09 06:35:48;;;;;;;4.50;4.30;;;;;;;11.78;100.00;100311.84;6116259;23;20033;-72
2022/11/09 06:38:21;;;;;;;4.70;4.50;;;;;;;12.16;100.00;100382.22;6175342;23;20055;-72
2022/11/09 06:40:55;;;;;;;5.00;4.60;;;;;;;10.49;100.00;100122.91;6120982;23;20021;-72
2022/11/09 06:43:22;;;;;;;5.05;4.63;;;;;;;11.90;100.00;100360.22;6168526;23;20075;-72
2022/11/09 06:45:50;;;;;;;4.70;4.50;;;;;;;11.74;100.00;100347.16;6141026;23;20519;-73
2022/11/09 06:48:16;;;;;;;4.72;4.40;;;;;;;12.04;100.00;100393.53;6171016;23;20025;-73
2022/11/09 06:50:43;;;;;;;6.05;4.68;;;;;;;12.06;100.00;100404.81;6137181;23;20549;-73
2022/11/09 06:53:11;;;;;;;4.65;4.45;;;;;;;12.08;100.00;100413.44;6171562;23;20033;-72
2022/11/09 06:55:38;;;;;;;4.60;4.40;;;;;;;12.10;100.00;100414.19;6095093;23;20663;-74
2022/11/09 06:58:06;;;;;;;5.40;4.32;;;;;;;12.14;100.00;100427.03;6173266;23;20036;-71
2022/11/09 07:00:33;;;;;;;4.50;4.30;;;;;;;12.06;100.00;100417.94;6114482;23;20087;-72
2022/11/09 07:02:59;;;;;;;4.90;4.68;;;;;;;12.14;100.00;100424.41;6177943;23;20024;-72
2022/11/09 07:05:26;;;;;;;5.10;4.72;;;;;;;11.94;100.00;100399.34;6112437;23;20022;-72
2022/11/09 07:07:52;;;;;;;9.70;4.78;;;;;;;11.69;100.00;100365.00;6176694;23;19997;-71
2022/11/09 07:10:19;;;;;;;4.50;4.30;;;;;;;12.20;100.00;100457.38;6121510;23;20021;-72
2022/11/09 07:12:45;;;;;;;4.90;4.50;;;;;;;11.93;100.00;100418.72;6179318;23;20032;-72
2022/11/09 07:15:12;;;;;;;5.05;4.80;;;;;;;12.07;100.00;100433.66;6142744;23;20439;-72
2022/11/09 07:17:40;;;;;;;4.90;4.50;;;;;;;11.82;100.00;100417.66;6177036;23;20032;-73
2022/11/09 07:20:08;;;;;;;4.85;4.55;;;;;;;11.98;100.00;100460.50;6129443;23;20089;-73
2022/11/09 07:22:38;;;;;;;4.80;4.50;;;;;;;11.69;100.00;100442.09;6175504;23;20433;-72
2022/11/09 07:25:06;;;;;;;4.70;4.50;;;;;;;11.74;100.00;100463.66;6128952;23;20100;-71
2022/11/09 07:27:32;;;;;;;4.95;4.65;;;;;;;11.54;100.00;100448.25;6152069;23;20090;-73
2022/11/09 07:29:59;;;;;;;4.55;4.35;;;;;;;11.47;100.00;100447.78;6139188;23;20289;-72
2022/11/09 07:32:25;;;;;;;4.75;4.45;;;;;;;11.22;100.00;100405.53;6177249;23;20017;-73
2022/11/09 07:35:12;;;;;;;4.45;4.25;;;;;;;11.08;100.00;100374.81;6140994;23;20028;-72
2022/11/09 07:37:38;;;;;;;4.32;4.13;;;;;;;11.21;100.00;100391.56;6123572;23;20029;-73
2022/11/09 07:40:05;;;;;;;4.68;4.47;;;;;;;11.45;100.00;100443.56;6141719;23;20033;-71
2022/11/09 07:42:32;;;;;;;4.60;4.40;;;;;;;11.27;100.00;100411.38;6175637;23;20510;-73
2022/11/09 07:44:58;;;;;;;4.65;4.45;;;;;;;11.28;100.00;100426.19;6122765;23;20153;-72
2022/11/09 07:47:24;;;;;;;4.80;4.60;;;;;;;10.80;100.00;100358.06;6173116;23;20069;-72
2022/11/09 07:49:51;;;;;;;4.38;4.18;;;;;;;11.41;100.00;100447.31;6121193;23;20300;-73
2022/11/09 07:52:17;;;;;;;4.95;4.63;;;;;;;10.81;100.00;100359.78;6144999;23;20032;-73
2022/11/09 07:54:43;;;;;;;4.57;4.38;;;;;;;11.31;100.00;100439.97;6150146;23;20021;-72
2022/11/09 07:57:16;;;;;;;4.53;4.32;;;;;;;11.12;100.00;100427.06;6145514;23;20021;-72
2022/11/09 07:59:42;;;;;;;4.50;4.30;;;;;;;11.38;100.00;100433.44;6137132;23;20532;-72
2022/11/09 08:02:09;;;;;;;4.95;4.65;;;;;;;10.95;100.00;100367.69;6175949;23;20171;-71
2022/11/09 08:04:36;;;;;;;5.45;4.90;;;;;;;10.95;100.00;100359.81;6124038;23;20021;-71
2022/11/09 08:07:02;;;;;;;4.50;4.30;;;;;;;11.28;100.00;100400.75;6140159;23;20431;-72
2022/11/09 08:09:29;;;;;;;4.38;4.18;;;;;;;11.47;100.00;100431.19;6171862;23;20198;-73
2022/11/09 08:11:55;;;;;;;4.63;4.43;;;;;;;10.42;100.00;100250.94;6115825;23;20024;-71
2022/11/09 08:14:21;;;;;;;4.80;4.50;;;;;;;10.94;100.00;100329.25;6169678;23;20024;-72
2022/11/09 08:16:48;;;;;;;8.68;5.00;;;;;;;11.68;100.00;100436.91;6122673;23;20027;-73
2022/11/09 08:19:14;;;;;;;4.80;4.50;;;;;;;11.58;100.00;100411.19;6147633;23;20081;-72
2022/11/09 08:21:41;;;;;;;7.30;4.78;;;;;;;11.76;100.00;100430.25;6140193;23;20082;-72
2022/11/09 08:24:07;;;;;;;5.63;4.90;;;;;;;11.08;100.00;100302.13;6137181;23;20033;-72
2022/11/09 08:26:33;;;;;;;5.07;4.55;;;;;;;12.06;100.00;100449.50;6151711;23;20089;-74
2022/11/09 08:29:00;;;;;;;4.90;4.60;;;;;;;12.18;100.00;100459.28;6144828;23;20439;-77
2022/11/09 08:31:26;;;;;;;4.90;4.60;;;;;;;11.84;100.00;100402.63;6174864;23;20012;-75
2022/11/09 08:33:53;;;;;;;5.85;5.45;;;;;;;12.26;100.00;100464.06;6115805;23;20037;-76
2022/11/09 08:36:19;;;;;;;4.80;4.60;;;;;;;12.02;100.00;100405.94;6143037;23;20017;-73
2022/11/09 08:38:45;;;;;;;4.72;4.50;;;;;;;12.64;100.00;100514.25;6117540;23;20211;-74
2022/11/09 08:41:13;;;;;;;4.70;4.50;;;;;;;12.35;100.00;100452.97;6146210;23;20105;-74
2022/11/09 08:43:40;;;;;;;4.45;4.25;;;;;;;12.47;100.00;100457.44;6142149;23;20121;-72
2022/11/09 08:46:06;;;;;;;5.50;5.00;;;;;;;12.11;100.00;100377.28;6172845;23;20044;-72
2022/11/09 08:48:33;;;;;;;4.50;4.30;;;;;;;12.17;100.00;100371.63;6146477;23;20125;-73
2022/11/09 08:50:59;;;;;;;5.20;4.90;;;;;;;13.09;100.00;100519.28;6144930;23;20052;-71
2022/11/09 08:53:28;;;;;;;4.80;4.53;;;;;;;12.75;100.00;100448.59;6120325;23;20032;-71
2022/11/09 08:55:54;;;;;;;4.90;4.70;;;;;;;13.32;100.00;100537.09;6151391;23;20020;-75
2022/11/09 08:58:21;;;;;;;4.97;4.72;;;;;;;13.61;100.00;100557.19;6116181;23;20526;-75
2022/11/09 09:00:48;;;;;;;4.72;4.53;;;;;;;13.84;100.00;100576.75;6167103;23;20047;-76
2022/11/09 09:03:14;;;;;;;5.10;4.70;;;;;;;13.51;99.52;100512.13;6147197;23;20089;-76
2022/11/09 09:05:41;;;;;;;4.95;4.68;;;;;;;13.71;98.03;100556.47;6177174;23;20036;-76
2022/11/09 09:08:10;;;;;;;5.60;5.20;;;;;;;13.81;98.00;100546.16;6136528;23;20025;-76
2022/11/09 09:10:36;;;;;;;5.00;4.53;;;;;;;13.02;94.33;100424.00;6173095;23;20028;-76
2022/11/09 09:13:03;;;;;;;5.80;5.25;;;;;;;13.69;94.66;100536.41;6131987;23;20053;-75
2022/11/09 09:15:30;;;;;;;4.72;4.53;;;;;;;13.66;94.82;100521.66;6169788;23;20408;-75
2022/11/09 09:18:02;;;;;;;4.90;4.70;;;;;;;14.19;95.32;100600.69;6119564;23;20036;-76
2022/11/09 09:20:28;;;;;;;5.15;4.75;;;;;;;14.21;94.26;100604.06;6169647;23;20471;-76
2022/11/09 09:22:59;;;;;;;4.60;4.40;;;;;;;13.89;91.82;100557.03;6143530;23;20161;-76
2022/11/09 09:25:26;;;;;;;5.03;4.80;;;;;;;13.63;91.18;100513.97;6179201;23;20016;-77
2022/11/09 09:27:53;;;;;;;5.32;4.90;;;;;;;14.06;90.05;100576.13;6147270;23;20025;-77
2022/11/09 09:30:19;;;;;;;4.90;4.70;;;;;;;14.15;88.67;100583.38;6126506;23;20237;-76
2022/11/09 09:32:47;;;;;;;4.60;4.40;;;;;;;14.19;87.48;100597.22;6147469;23;20029;-74
2022/11/09 09:35:13;;;;;;;5.05;4.70;;;;;;;14.09;87.43;100554.78;6116171;23;20629;-76
2022/11/09 09:37:40;;;;;;;4.57;4.38;;;;;;;13.93;86.49;100510.16;6167386;23;20489;-75
2022/11/09 09:40:07;;;;;;;5.00;4.65;;;;;;;14.27;86.17;100568.50;6128706;23;20025;-73
2022/11/09 09:42:36;;;;;;;5.10;4.80;;;;;;;14.48;86.25;100622.44;6146828;23;20013;-73
2022/11/09 09:45:22;;;;;;;6.78;4.88;;;;;;;13.72;86.03;100501.94;6118583;23;20025;-74
2022/11/09 09:48:23;;;;;;;5.88;5.30;;;;;;;14.21;86.46;100592.69;6164435;23;20069;-74
2022/11/09 09:50:59;;;;;;;4.80;4.60;;;;;;;14.31;87.20;100626.28;6113840;23;20013;-74
2022/11/09 09:53:32;;;;;;;5.20;4.82;;;;;;;14.34;85.01;100626.03;6180442;23;20034;-72
2022/11/09 09:56:37;;;;;;;5.28;4.88;;;;;;;13.00;84.12;100436.44;6118545;23;20380;-76
2022/11/09 09:59:20;;;;;;;5.00;4.60;;;;;;;13.78;84.78;100591.19;6135990;23;20033;-76
2022/11/09 10:01:48;;;;;;;5.03;4.63;;;;;;;13.73;85.04;100583.59;6165644;23;20093;-76
2022/11/09 10:04:18;;;;;;;5.10;4.75;;;;;;;14.16;83.90;100645.78;6125322;23;20033;-76
2022/11/09 10:06:57;;;;;;;4.70;4.50;;;;;;;14.03;84.19;100618.53;6147544;23;20381;-75
2022/11/09 10:09:45;;;;;;;5.65;5.35;;;;;;;13.97;83.71;100606.59;6129114;23;20029;-77
2022/11/09 10:12:17;;;;;;;4.88;4.68;;;;;;;14.25;83.80;100636.38;6176661;23;20024;-76
2022/11/09 10:15:19;;;;;;;4.97;4.68;;;;;;;14.00;83.32;100613.47;6136216;23;20022;-75
2022/11/09 10:17:55;;;;;;;4.90;4.53;;;;;;;14.20;82.72;100643.78;6145322;23;20739;-76
2022/11/09 10:20:45;;;;;;;4.70;4.50;;;;;;;14.11;82.28;100648.75;6126514;23;20021;-76
2022/11/09 10:23:38;;;;;;;4.53;4.32;;;;;;;14.09;82.69;100636.59;6138474;23;20016;-76
2022/11/09 10:26:16;;;;;;;5.20;4.90;;;;;;;14.29;81.98;100658.97;6139495;23;20086;-77
2022/11/09 10:28:46;;;;;;;4.55;4.35;;;;;;;14.14;81.55;100616.84;6171969;23;20207;-76
2022/11/09 10:31:33;;;;;;;4.72;4.53;;;;;;;14.61;80.39;100658.59;6109932;23;20341;-77
2022/11/09 10:34:11;;;;;;;4.93;4.72;;;;;;;14.76;80.12;100662.81;6143002;23;20033;-76
2022/11/09 10:36:51;;;;;;;5.75;5.20;;;;;;;14.65;78.27;100649.50;6138335;23;20036;-77
2022/11/09 10:39:20;;;;;;;4.93;4.72;;;;;;;14.28;78.50;100605.34;6113471;23;20097;-76
2022/11/09 10:41:46;;;;;;;4.82;4.55;;;;;;;14.08;78.35;100572.41;6150608;23;20037;-77
2022/11/09 10:44:15;;;;;;;5.07;4.70;;;;;;;14.56;78.07;100641.28;6173385;23;20594;-75
2022/11/09 10:47:15;;;;;;;4.50;4.30;;;;;;;14.66;78.14;100627.44;6141972;23;20074;-77
2022/11/09 10:49:42;;;;;;;4.72;4.53;;;;;;;14.48;77.74;100592.56;6167665;23;20033;-76
2022/11/09 10:52:32;;;;;;;5.20;4.80;;;;;;;14.82;76.12;100662.38;6114883;23;20031;-76
2022/11/09 10:55:25;;;;;;;5.53;5.00;;;;;;;15.04;76.55;100648.47;6175570;23;20424;-77
2022/11/09 10:57:55;;;;;;;4.80;4.60;;;;;;;15.02;75.26;100604.63;6136760;23;20031;-77
2022/11/09 11:00:21;;;;;;;5.10;4.80;;;;;;;14.64;73.32;100499.91;6148071;23;20020;-77
2022/11/09 11:02:49;;;;;;;5.20;4.90;;;;;;;14.64;72.22;100469.06;6129331;23;20017;-74
2022/11/09 11:05:15;;;;;;;5.20;4.90;;;;;;;15.55;72.14;100616.56;6174742;23;20040;-77
2022/11/09 11:07:42;;;;;;;4.93;4.72;;;;;;;15.20;72.26;100571.56;6133891;23;20033;-76
2022/11/09 11:10:14;;;;;;;5.63;4.93;;;;;;;15.55;72.67;100620.97;6173847;23;20021;-77
2022/11/09 11:13:12;;;;;;;5.10;4.60;;;;;;;15.68;72.07;100618.28;6134562;23;20033;-76
2022/11/09 11:15:41;;;;;;;8.93;5.22;;;;;;;15.20;70.70;100546.94;6173282;23;20088;-76
2022/11/09 11:18:23;;;;;;;8.27;4.80;;;;;;;15.64;71.56;100616.81;6142788;23;20021;-77
2022/11/09 11:21:13;;;;;;;5.10;4.85;;;;;;;15.65;71.53;100600.81;6164512;23;20033;-77
2022/11/09 11:24:11;;;;;;;4.88;4.68;;;;;;;15.34;71.07;100565.25;6118353;23;20094;-75
2022/11/09 11:26:52;;;;;;;9.85;4.80;;;;;;;15.54;70.52;100620.16;6176672;23;20036;-76
2022/11/09 11:29:28;;;;;;;5.47;4.97;;;;;;;15.41;70.52;100586.78;6138480;23;20018;-76
2022/11/09 11:31:54;;;;;;;5.20;4.93;;;;;;;14.83;70.57;100521.38;6150718;23;20028;-76